Old Town, Iowa
Current Conditions -  °F | °C
As of 8:53 AM on Monday 22 Dec 2014 (Local Time) from KSPW Reporting Station
Light Rain Light Rain  
Wind Chill: 30°   Ceiling: 400
Heat Index: 39°   Visibility: 3mi
Dew Point: 37°   Wind: 18mph
Humidity: 93%   Direction: 150°SSE
Pressure: 29.53"   Gusts: NA
Location:  43.2989°N, 95.2104°W
Report Text: KSPW 221453Z AUTO 15016KT 3SM -RA BR OVC004 04/03 A2953 RMK AO2 SLP009 P0003 60007 T00390028 58006 TSNO
Loading
Personal Weather Stations






























Interactive Weather Map New forecast layout! Learn more

10-Day Weather Forecast

Advertisements
Track Severe Weather on mobile